This is the latest recevied weather packets stored in our database for station/object DH9SB-6. If no packets are shown the sender has not sent any weather packets the latest 10 day(s).
| Time | Temp. | Humidity | Pressure | Rain* | Wind** | Luminosity | Snow |
|---|---|---|---|---|---|---|---|
| 1787827404 | 30.56° C | 44% | - | 0 mm | - | - | - |
| 1787827067 | 30.56° C | 44% | - | 0 mm | - | - | - |
| 1787826445 | 30° C | 44% | - | 0 mm | - | - | - |
| 1787825580 | 30° C | 43% | - | 0 mm | - | - | - |
| 1787824956 | 30° C | 45% | - | 0 mm | - | - | - |
| 1787824380 | 30° C | 44% | - | 0 mm | - | - | - |
| 1787823757 | 30° C | 45% | - | 0 mm | - | - | - |
| 1787823180 | 30° C | 44% | - | 0 mm | - | - | - |
| 1787822556 | 30.56° C | 44% | - | 0 mm | - | - | - |
| 1787821980 | 30° C | 47% | - | 0 mm | - | - | - |
| 1787821356 | 28.89° C | 48% | - | 0 mm | - | - | - |
| 1787820779 | 28.33° C | 51% | - | 0 mm | - | - | - |
| 1787820156 | 26.67° C | 60% | - | 0 mm | - | - | - |
| 1787819582 | 25° C | 61% | - | 0 mm | - | - | - |
| 1787818956 | 24.44° C | 61% | - | 0 mm | - | - | - |
| 1787817758 | 25° C | 60% | - | 0 mm | - | - | - |
| 1787817180 | 25.56° C | 60% | - | 0 mm | - | - | - |
| 1787816556 | 25° C | 61% | - | 0 mm | - | - | - |
| 1787815980 | 24.44° C | 61% | - | 0 mm | - | - | - |
| 1787815355 | 25.56° C | 58% | - | 0 mm | - | - | - |
| 1787814780 | 25.56° C | 60% | - | 0 mm | - | - | - |
| 1787814156 | 25° C | 61% | - | 0 mm | - | - | - |
| 1787813581 | 23.89° C | 65% | - | 0 mm | - | - | - |
| 1787812956 | 22.22° C | 70% | - | 0 mm | - | - | - |
| 1787812385 | 21.67° C | 73% | - | 0 mm | - | - | - |
* Rain latest hour (hover to see other rain measurements)
** Current wind speed in m/s (hover to see current wind gust speed)